createdAt,value
2022-08-18T00:02:06.755Z,7.57
2022-08-18T00:04:45.258Z,7.65
2022-08-18T00:07:31.680Z,7.72
2022-08-18T00:10:00.115Z,7.30
2022-08-18T00:12:28.490Z,6.97
2022-08-18T00:14:57.019Z,7.47
2022-08-18T00:17:24.313Z,7.95
2022-08-18T00:19:51.368Z,6.90
2022-08-18T00:22:20.333Z,7.63
2022-08-18T00:24:56.002Z,9.35
2022-08-18T00:27:28.674Z,10.52
2022-08-18T00:29:59.489Z,9.70
2022-08-18T00:32:30.356Z,7.95
2022-08-18T00:34:57.356Z,8.93
2022-08-18T00:37:25.159Z,7.97
2022-08-18T00:39:53.870Z,6.90
2022-08-18T00:42:30.751Z,6.40
2022-08-18T00:45:01.751Z,8.82
2022-08-18T00:47:41.931Z,9.07
2022-08-18T00:50:21.944Z,10.07
2022-08-18T00:53:35.602Z,8.93
2022-08-18T00:56:11.505Z,7.43
2022-08-18T00:59:11.270Z,7.15
2022-08-18T01:01:39.531Z,9.80
2022-08-18T01:04:12.597Z,7.93
2022-08-18T01:06:57.467Z,7.85
2022-08-18T01:09:24.978Z,8.43
2022-08-18T01:11:51.992Z,8.23
2022-08-18T01:14:20.187Z,6.28
2022-08-18T01:17:08.308Z,6.43
2022-08-18T01:19:55.084Z,6.72
2022-08-18T01:22:26.528Z,6.70
2022-08-18T01:25:15.858Z,6.85
2022-08-18T01:27:43.594Z,7.00
2022-08-18T01:30:15.891Z,6.38
2022-08-18T01:32:46.001Z,6.95
2022-08-18T01:35:19.911Z,6.65
2022-08-18T01:37:50.504Z,7.80
2022-08-18T01:41:24.810Z,6.63
2022-08-18T01:43:06.239Z,6.75
2022-08-18T01:45:33.641Z,7.07
2022-08-18T01:48:01.058Z,8.60
2022-08-18T01:50:28.423Z,7.60
2022-08-18T01:52:55.535Z,7.10
2022-08-18T01:55:22.641Z,6.43
2022-08-18T01:57:49.769Z,6.28
2022-08-18T02:00:18.930Z,6.03
2022-08-18T02:02:47.127Z,6.95
2022-08-18T02:05:34.674Z,6.82
2022-08-18T02:08:02.597Z,6.15
2022-08-18T02:10:29.756Z,6.60
2022-08-18T02:12:56.985Z,6.25
2022-08-18T02:15:24.075Z,5.38
2022-08-18T02:17:51.157Z,5.10
2022-08-18T02:20:19.617Z,4.95
2022-08-18T02:22:48.366Z,4.32
2022-08-18T02:25:17.531Z,4.68
2022-08-18T02:27:45.892Z,4.82
2022-08-18T02:30:16.473Z,3.72
2022-08-18T02:32:44.031Z,4.43
2022-08-18T02:35:13.698Z,3.97
2022-08-18T02:37:48.083Z,4.47
2022-08-18T02:40:16.407Z,4.80
2022-08-18T02:42:44.781Z,3.67
2022-08-18T02:45:13.340Z,3.40
2022-08-18T02:47:40.682Z,3.88
2022-08-18T02:50:11.044Z,3.72
2022-08-18T02:52:38.359Z,3.72
2022-08-18T02:55:08.956Z,3.70
2022-08-18T02:57:36.442Z,4.18
2022-08-18T03:00:04.636Z,4.03
2022-08-18T03:02:32.447Z,4.15
2022-08-18T03:05:00.784Z,2.95
2022-08-18T03:07:27.706Z,3.85
2022-08-18T03:09:54.647Z,3.42
2022-08-18T03:12:21.528Z,3.55
2022-08-18T03:14:48.611Z,3.05
2022-08-18T03:17:17.926Z,3.40
2022-08-18T03:19:47.784Z,3.22
2022-08-18T03:22:27.163Z,3.05
2022-08-18T03:24:55.815Z,3.25
2022-08-18T03:27:22.781Z,3.35
2022-08-18T03:29:50.878Z,3.63
2022-08-18T03:32:21.361Z,4.07
2022-08-18T03:34:51.390Z,3.92
2022-08-18T03:37:21.085Z,4.43
2022-08-18T03:39:48.468Z,3.70
2022-08-18T03:42:16.395Z,2.95
2022-08-18T03:44:43.436Z,3.95
2022-08-18T03:47:11.008Z,3.78
2022-08-18T03:49:38.703Z,3.75
2022-08-18T03:52:10.528Z,4.25
2022-08-18T03:54:39.269Z,2.85
2022-08-18T03:57:09.751Z,2.92
2022-08-18T03:59:36.956Z,2.90
2022-08-18T04:02:05.078Z,3.38
2022-08-18T04:04:32.359Z,2.85
2022-08-18T04:07:06.163Z,2.95
2022-08-18T04:09:34.639Z,3.50
2022-08-18T04:12:16.608Z,3.00
2022-08-18T04:14:48.144Z,4.07
2022-08-18T04:17:20.367Z,3.83
2022-08-18T04:19:47.373Z,3.75
2022-08-18T04:22:18.270Z,4.07
2022-08-18T04:24:46.542Z,3.38
2022-08-18T04:27:13.532Z,3.78
2022-08-18T04:29:40.590Z,3.33
2022-08-18T04:32:07.647Z,2.90
2022-08-18T04:34:35.002Z,2.92
2022-08-18T04:37:02.360Z,2.92
2022-08-18T04:39:30.191Z,2.75
2022-08-18T04:41:57.999Z,3.40
2022-08-18T04:44:25.206Z,3.15
2022-08-18T04:46:54.007Z,3.40
2022-08-18T04:49:25.666Z,2.90
2022-08-18T04:52:36.519Z,3.80
2022-08-18T04:55:01.792Z,3.75
2022-08-18T04:57:29.193Z,3.22
2022-08-18T05:02:41.788Z,3.67
2022-08-18T05:05:09.111Z,3.35
2022-08-18T05:07:36.171Z,3.28
2022-08-18T05:10:03.307Z,2.95
2022-08-18T05:12:30.392Z,3.42
2022-08-18T05:14:57.680Z,3.03
2022-08-18T05:17:29.013Z,3.30
2022-08-18T05:19:58.910Z,3.72
2022-08-18T05:22:28.781Z,3.58
2022-08-18T05:24:59.188Z,3.45
2022-08-18T05:27:30.590Z,4.13
2022-08-18T05:29:57.713Z,4.53
2022-08-18T05:32:37.326Z,4.70
2022-08-18T05:35:18.341Z,4.82
2022-08-18T05:38:16.122Z,4.55
2022-08-18T05:44:15.694Z,3.90
2022-08-18T05:46:59.681Z,3.55
2022-08-18T05:49:28.195Z,3.38
2022-08-18T05:56:03.708Z,3.72
2022-08-18T05:58:51.666Z,3.40
2022-08-18T06:01:32.201Z,3.45
2022-08-18T06:04:33.697Z,3.30
2022-08-18T06:07:27.059Z,3.10
2022-08-18T06:10:06.606Z,4.00
2022-08-18T06:12:47.689Z,3.55
2022-08-18T06:15:59.255Z,3.40
2022-08-18T06:19:20.686Z,3.80
2022-08-18T06:22:31.353Z,3.13
2022-08-18T06:29:55.189Z,3.28
2022-08-18T06:42:02.109Z,3.75
2022-08-18T06:44:46.923Z,3.28
2022-08-18T06:51:15.053Z,3.08
2022-08-18T06:53:54.899Z,3.42
2022-08-18T06:56:49.004Z,3.08
2022-08-18T06:59:36.874Z,3.03
2022-08-18T07:02:27.404Z,2.97
2022-08-18T07:05:03.174Z,3.03
2022-08-18T07:07:39.880Z,2.88
2022-08-18T07:10:30.996Z,2.80
2022-08-18T07:13:21.398Z,2.55
2022-08-18T07:15:50.038Z,3.03
2022-08-18T07:18:27.428Z,2.58
2022-08-18T07:20:58.562Z,2.65
2022-08-18T07:23:40.239Z,2.15
2022-08-18T07:26:09.957Z,2.10
2022-08-18T07:28:49.682Z,1.60
2022-08-18T07:31:35.452Z,2.25
2022-08-18T07:34:16.010Z,1.80
2022-08-18T07:36:55.345Z,2.30
2022-08-18T07:39:47.178Z,1.90
2022-08-18T07:43:00.891Z,2.30
2022-08-18T07:45:35.874Z,2.00
2022-08-18T07:48:38.723Z,1.60
2022-08-18T07:51:16.607Z,1.50
2022-08-18T07:54:06.611Z,1.60
2022-08-18T07:56:59.124Z,2.03
2022-08-18T07:59:55.328Z,2.20
2022-08-18T08:02:38.941Z,2.00
2022-08-18T08:05:27.736Z,2.22
2022-08-18T08:08:36.710Z,1.90
2022-08-18T08:11:11.045Z,1.67
2022-08-18T08:14:21.687Z,1.50
2022-08-18T08:17:06.931Z,1.40
2022-08-18T08:20:04.191Z,1.73
2022-08-18T08:23:00.574Z,1.50
2022-08-18T08:26:00.487Z,1.15
2022-08-18T08:28:55.517Z,1.40
2022-08-18T08:31:58.858Z,1.40
2022-08-18T08:35:09.491Z,1.27
2022-08-18T08:38:36.660Z,1.60
2022-08-18T08:44:15.530Z,1.48
2022-08-18T08:48:40.641Z,1.55
2022-08-18T08:50:55.687Z,1.48
2022-08-18T08:54:05.129Z,1.45
2022-08-18T08:56:44.183Z,1.58
2022-08-18T08:59:40.410Z,1.15
2022-08-18T09:02:49.146Z,1.65
2022-08-18T09:05:51.008Z,1.27
2022-08-18T09:08:46.324Z,1.40
2022-08-18T09:11:29.664Z,1.50
2022-08-18T09:14:10.340Z,1.40
2022-08-18T09:16:55.475Z,1.30
2022-08-18T09:20:18.427Z,1.13
2022-08-18T09:23:08.307Z,1.13
2022-08-18T09:26:07.585Z,1.23
2022-08-18T09:28:35.122Z,1.05
2022-08-18T09:31:12.816Z,1.10
2022-08-18T09:33:46.727Z,1.48
2022-08-18T09:43:33.864Z,1.10
2022-08-18T09:46:12.350Z,1.23
2022-08-18T09:49:51.022Z,1.02
2022-08-18T09:52:24.272Z,1.30
2022-08-18T09:55:03.665Z,1.35
2022-08-18T09:57:47.160Z,1.02
2022-08-18T10:00:33.338Z,1.45
2022-08-18T10:03:04.741Z,1.13
2022-08-18T10:05:32.151Z,1.05
2022-08-18T10:08:08.178Z,0.98
2022-08-18T10:11:00.705Z,0.90
2022-08-18T10:14:08.193Z,1.10
2022-08-18T10:20:33.600Z,0.95
2022-08-18T10:23:00.946Z,1.10
2022-08-18T10:25:39.667Z,1.15
2022-08-18T10:28:33.090Z,1.30
2022-08-18T10:31:06.215Z,0.90
2022-08-18T10:34:08.522Z,1.20
2022-08-18T10:36:58.967Z,1.20
2022-08-18T10:39:42.362Z,1.20
2022-08-18T10:42:18.253Z,1.00
2022-08-18T10:44:52.990Z,0.90
2022-08-18T10:50:25.408Z,0.90
2022-08-18T10:56:32.973Z,1.33
2022-08-18T10:59:31.124Z,1.35
2022-08-18T11:03:01.982Z,1.08
2022-08-18T11:11:37.050Z,1.30
2022-08-18T11:14:44.764Z,1.55
2022-08-18T11:17:40.636Z,1.33
2022-08-18T11:20:13.685Z,1.10
2022-08-18T11:22:51.953Z,1.40
2022-08-18T11:25:33.332Z,1.50
2022-08-18T11:28:01.767Z,1.48
2022-08-18T11:30:37.537Z,1.65
2022-08-18T11:33:07.845Z,1.58
2022-08-18T11:36:24.478Z,1.50
2022-08-18T11:39:37.130Z,1.30
2022-08-18T11:42:35.215Z,1.63
2022-08-18T11:45:31.971Z,1.42
2022-08-18T11:51:24.713Z,1.30
2022-08-18T11:54:50.317Z,1.23
2022-08-18T12:00:47.029Z,1.40
2022-08-18T12:04:04.849Z,1.10
2022-08-18T12:07:12.976Z,1.27
2022-08-18T12:10:28.715Z,1.27
2022-08-18T12:13:25.535Z,1.02
2022-08-18T12:16:50.093Z,1.42
2022-08-18T12:19:34.385Z,1.00
2022-08-18T12:22:40.061Z,1.17
2022-08-18T12:25:12.312Z,1.13
2022-08-18T12:27:40.513Z,1.00
2022-08-18T12:30:16.606Z,0.90
2022-08-18T12:33:10.361Z,0.90
2022-08-18T12:35:44.612Z,0.93
2022-08-18T12:38:14.405Z,0.90
2022-08-18T12:40:42.811Z,1.20
2022-08-18T12:43:10.512Z,1.10
2022-08-18T12:45:39.004Z,1.30
2022-08-18T12:48:06.848Z,0.90
2022-08-18T12:50:43.194Z,1.38
2022-08-18T12:56:26.230Z,1.17
2022-08-18T12:58:54.002Z,1.40
2022-08-18T13:01:25.435Z,1.10
2022-08-18T13:04:14.035Z,1.40
2022-08-18T13:07:07.751Z,1.25
2022-08-18T13:09:52.710Z,1.45
2022-08-18T13:12:25.610Z,1.42
2022-08-18T13:14:55.287Z,1.25
2022-08-18T13:17:30.701Z,1.25
2022-08-18T13:20:24.480Z,1.48
2022-08-18T13:22:53.648Z,1.15
2022-08-18T13:25:32.509Z,1.35
2022-08-18T13:28:06.463Z,1.27
2022-08-18T13:30:35.500Z,0.90
2022-08-18T13:33:34.059Z,1.20
2022-08-18T13:35:54.421Z,1.10
2022-08-18T13:38:25.977Z,1.17
2022-08-18T13:40:57.757Z,0.95
2022-08-18T13:43:32.468Z,1.00
2022-08-18T13:46:02.486Z,1.10
2022-08-18T13:48:31.962Z,1.10
2022-08-18T13:51:01.866Z,1.10
2022-08-18T13:53:31.876Z,0.77
2022-08-18T13:55:59.759Z,1.17
2022-08-18T13:58:28.752Z,0.93
2022-08-18T14:01:15.944Z,0.80
2022-08-18T14:03:49.855Z,1.00
2022-08-18T14:06:22.902Z,1.15
2022-08-18T14:08:52.470Z,1.45
2022-08-18T14:11:25.905Z,1.02
2022-08-18T14:13:54.649Z,0.98
2022-08-18T14:16:23.478Z,1.52
2022-08-18T14:19:13.016Z,1.35
2022-08-18T14:22:03.927Z,1.30
2022-08-18T14:25:28.478Z,1.50
2022-08-18T14:27:56.474Z,1.33
2022-08-18T14:30:24.608Z,1.20
2022-08-18T14:32:53.766Z,1.27
2022-08-18T14:36:04.155Z,1.10
2022-08-18T14:38:10.451Z,1.52
2022-08-18T14:40:42.968Z,1.10
2022-08-18T14:43:11.596Z,1.10
2022-08-18T14:45:49.234Z,1.17
2022-08-18T14:48:19.231Z,1.42
2022-08-18T14:50:50.240Z,1.48
2022-08-18T14:53:23.831Z,1.48
2022-08-18T14:55:53.200Z,1.10
2022-08-18T14:58:28.947Z,0.90
2022-08-18T15:01:02.163Z,1.27
2022-08-18T15:03:37.731Z,1.02
2022-08-18T15:06:07.627Z,0.98
2022-08-18T15:08:37.379Z,1.10
2022-08-18T15:11:11.727Z,1.33
2022-08-18T15:13:45.129Z,1.10
2022-08-18T15:16:14.258Z,1.10
2022-08-18T15:18:43.617Z,1.05
2022-08-18T15:21:35.238Z,0.98
2022-08-18T15:24:24.890Z,0.93
2022-08-18T15:26:57.683Z,0.93
2022-08-18T15:29:27.939Z,0.80
2022-08-18T15:32:02.183Z,0.93
2022-08-18T15:34:32.325Z,0.90
2022-08-18T15:37:09.464Z,1.00
2022-08-18T15:39:37.313Z,0.90
2022-08-18T15:42:11.438Z,1.08
2022-08-18T15:44:38.713Z,1.23
2022-08-18T15:47:09.405Z,1.10
2022-08-18T15:49:36.601Z,1.02
2022-08-18T15:52:05.594Z,0.85
2022-08-18T15:54:42.399Z,0.98
2022-08-18T15:57:38.868Z,0.98
2022-08-18T16:00:01.454Z,0.98
2022-08-18T16:02:39.827Z,0.80
2022-08-18T16:05:10.208Z,0.80
2022-08-18T16:07:45.195Z,0.77
2022-08-18T16:10:14.067Z,1.05
2022-08-18T16:12:45.618Z,0.93
2022-08-18T16:15:19.229Z,1.05
2022-08-18T16:17:47.667Z,0.75
2022-08-18T16:20:15.659Z,0.80
2022-08-18T16:22:43.585Z,0.82
2022-08-18T16:25:10.888Z,1.00
2022-08-18T16:27:42.153Z,1.00
2022-08-18T16:30:16.527Z,0.88
2022-08-18T16:32:43.771Z,0.90
2022-08-18T16:35:11.306Z,1.10
2022-08-18T16:37:39.182Z,1.02
2022-08-18T16:40:08.669Z,0.85
2022-08-18T16:42:36.781Z,0.88
2022-08-18T16:45:05.422Z,1.10
2022-08-18T16:47:42.887Z,0.90
2022-08-18T16:50:15.254Z,0.80
2022-08-18T16:52:42.658Z,0.95
2022-08-18T16:55:11.392Z,1.00
2022-08-18T16:57:59.837Z,0.85
2022-08-18T17:00:54.748Z,0.90
2022-08-18T17:03:47.536Z,0.82
2022-08-18T17:06:19.556Z,0.70
2022-08-18T17:08:56.767Z,0.70
2022-08-18T17:14:37.105Z,0.82
2022-08-18T17:17:08.678Z,0.77
2022-08-18T17:19:37.851Z,0.82
2022-08-18T17:22:06.535Z,0.80
2022-08-18T17:24:33.928Z,0.80
2022-08-18T17:27:22.357Z,0.88
2022-08-18T17:30:00.589Z,0.80
2022-08-18T17:32:40.335Z,0.55
2022-08-18T17:35:13.927Z,0.80
2022-08-18T17:37:52.385Z,0.68
2022-08-18T17:40:48.082Z,0.70
2022-08-18T17:43:21.755Z,0.63
2022-08-18T17:46:17.853Z,0.70
2022-08-18T17:48:49.738Z,0.77
2022-08-18T17:51:35.118Z,0.70
2022-08-18T17:54:29.801Z,0.80
2022-08-18T17:57:05.569Z,0.63
2022-08-18T17:59:45.577Z,0.70
2022-08-18T18:02:31.778Z,0.70
2022-08-18T18:05:01.766Z,0.60
2022-08-18T18:07:56.962Z,0.73
2022-08-18T18:11:15.689Z,0.80
2022-08-18T18:13:47.348Z,0.75
2022-08-18T18:16:35.478Z,0.50
2022-08-18T18:19:13.913Z,0.60
2022-08-18T18:21:57.644Z,0.60
2022-08-18T18:24:34.532Z,0.60
2022-08-18T18:27:26.597Z,0.70
2022-08-18T18:30:16.450Z,0.80
2022-08-18T18:33:06.255Z,0.60
2022-08-18T18:35:55.590Z,0.60
2022-08-18T18:38:41.140Z,0.50
2022-08-18T18:41:13.507Z,0.80
2022-08-18T18:43:46.902Z,0.60
2022-08-18T18:46:30.803Z,0.60
2022-08-18T18:49:27.736Z,0.55
2022-08-18T18:52:37.500Z,0.77
2022-08-18T18:55:27.290Z,0.60
2022-08-18T18:58:09.072Z,0.70
2022-08-18T19:01:01.934Z,0.95
2022-08-18T19:03:41.481Z,0.70
2022-08-18T19:06:56.302Z,0.60
2022-08-18T19:09:38.680Z,0.68
2022-08-18T19:12:29.824Z,0.70
2022-08-18T19:15:09.015Z,0.60
2022-08-18T19:17:56.784Z,0.57
2022-08-18T19:20:30.930Z,0.70
2022-08-18T19:23:09.380Z,0.40
2022-08-18T19:25:43.746Z,0.70
2022-08-18T19:28:24.986Z,0.75
2022-08-18T19:31:09.840Z,0.70
2022-08-18T19:33:50.469Z,0.60
2022-08-18T19:36:32.815Z,0.80
2022-08-18T19:39:24.276Z,0.70
2022-08-18T19:41:58.088Z,0.55
2022-08-18T19:45:16.625Z,0.60
2022-08-18T19:48:09.616Z,0.60
2022-08-18T19:51:12.698Z,0.60
2022-08-18T19:54:23.625Z,0.93
2022-08-18T19:57:03.764Z,0.73
2022-08-18T20:00:22.883Z,0.52
2022-08-18T20:02:50.527Z,0.80
2022-08-18T20:05:40.518Z,0.63
2022-08-18T20:08:48.368Z,0.70
2022-08-18T20:11:46.687Z,0.80
2022-08-18T20:14:19.491Z,0.50
2022-08-18T20:17:16.889Z,0.60
2022-08-18T20:19:51.252Z,0.60
2022-08-18T20:22:22.025Z,0.50
2022-08-18T20:24:59.773Z,0.80
2022-08-18T20:27:41.925Z,0.75
2022-08-18T20:30:43.039Z,0.60
2022-08-18T20:33:10.075Z,0.60
2022-08-18T20:35:59.081Z,1.00
2022-08-18T20:38:36.918Z,0.70
2022-08-18T20:41:28.929Z,0.65
2022-08-18T20:44:29.888Z,0.60
2022-08-18T20:47:03.910Z,0.70
2022-08-18T20:49:43.535Z,0.63
2022-08-18T20:52:44.914Z,0.70
2022-08-18T20:55:20.233Z,0.40
2022-08-18T20:57:55.322Z,0.63
2022-08-18T21:00:27.459Z,0.65
2022-08-18T21:02:57.746Z,0.60
2022-08-18T21:05:28.160Z,0.70
2022-08-18T21:08:16.442Z,0.60
2022-08-18T21:10:58.300Z,0.57
2022-08-18T21:13:40.801Z,0.60
2022-08-18T21:16:13.440Z,0.60
2022-08-18T21:19:08.817Z,0.80
2022-08-18T21:21:48.239Z,1.05
2022-08-18T21:24:37.551Z,0.55
2022-08-18T21:27:25.202Z,0.50
2022-08-18T21:30:51.126Z,0.50
2022-08-18T21:33:20.317Z,0.65
2022-08-18T21:39:34.567Z,0.45
2022-08-18T21:42:02.158Z,0.70
2022-08-18T21:44:41.856Z,0.68
2022-08-18T21:47:19.136Z,0.80
2022-08-18T21:50:17.953Z,0.80
2022-08-18T21:52:52.076Z,0.63
2022-08-18T21:55:45.394Z,0.70
2022-08-18T21:58:21.396Z,0.60
2022-08-18T22:01:59.331Z,0.73
2022-08-18T22:04:45.465Z,1.00
2022-08-18T22:07:22.237Z,0.93
2022-08-18T22:11:41.832Z,0.85
2022-08-18T22:14:54.472Z,0.60
2022-08-18T22:17:45.109Z,0.60
2022-08-18T22:20:50.544Z,0.80
2022-08-18T22:23:56.199Z,0.88
2022-08-18T22:26:30.911Z,1.00
2022-08-18T22:29:09.824Z,0.85
2022-08-18T22:31:49.772Z,0.90
2022-08-18T22:34:27.396Z,0.70
2022-08-18T22:37:00.153Z,0.75
2022-08-18T22:39:36.699Z,0.70
2022-08-18T22:42:05.225Z,0.65
2022-08-18T22:44:32.963Z,0.60
2022-08-18T22:47:00.316Z,0.65
2022-08-18T22:49:27.424Z,0.80
2022-08-18T22:51:55.751Z,0.57
2022-08-18T22:54:24.256Z,0.70
2022-08-18T22:56:53.891Z,0.70
2022-08-18T22:59:26.828Z,0.80
2022-08-18T23:01:54.685Z,0.80
2022-08-18T23:04:22.996Z,0.85
2022-08-18T23:06:53.763Z,0.80
2022-08-18T23:09:29.679Z,0.70
2022-08-18T23:11:59.930Z,0.90
2022-08-18T23:14:27.349Z,1.10
2022-08-18T23:16:54.298Z,0.85
2022-08-18T23:19:21.783Z,0.70
2022-08-18T23:21:49.162Z,0.90
2022-08-18T23:24:17.613Z,0.90
2022-08-18T23:26:45.715Z,1.10
2022-08-18T23:29:14.419Z,0.90
2022-08-18T23:31:43.465Z,0.90
2022-08-18T23:34:13.230Z,1.10
2022-08-18T23:36:45.357Z,0.80
2022-08-18T23:39:13.959Z,0.80
2022-08-18T23:41:40.919Z,0.95
2022-08-18T23:44:07.937Z,1.17
2022-08-18T23:46:35.803Z,0.85
2022-08-18T23:49:04.616Z,1.20
2022-08-18T23:51:44.031Z,0.93
2022-08-18T23:54:20.164Z,1.13
2022-08-18T23:56:48.436Z,1.30
2022-08-18T23:59:18.669Z,1.35
